Time;durP1;ratioP1;P1;durP2;ratioP2;P2;SDS_P1;SDS_P2;PMS_P1;PMS_P2;Temp;Humidity;BMP_temperature;BMP_pressure;BME280_temperature;BME280_humidity;BME280_pressure;Samples;Min_cycle;Max_cycle;Signal;HPM_P1;HPM_P2
2024/03/26 00:01:26;;;;;;;;;;;;;;;;;;5093024;28;19923;-73
2024/03/26 00:03:52;;;;;;;;;;;;;;;;;;5092693;28;19915;-73
2024/03/26 00:06:18;;;;;;;;;;;;;;;;;;5094208;28;19955;-73
2024/03/26 00:08:44;;;;;;;;;;;;;;;;;;5094408;28;19961;-73
2024/03/26 00:11:10;;;;;;;;;;;;;;;;;;5093712;28;19912;-73
2024/03/26 00:13:36;;;;;;;;;;;;;;;;;;5094215;28;19991;-73
2024/03/26 00:16:02;;;;;;;;;;;;;;;;;;5094057;28;19908;-73
2024/03/26 00:18:28;;;;;;;;;;;;;;;;;;5092391;28;20371;-73
2024/03/26 00:20:54;;;;;;;;;;;;;;;;;;5092696;28;19915;-74
2024/03/26 00:23:20;;;;;;;;;;;;;;;;;;5093062;28;19908;-73
2024/03/26 00:25:48;;;;;;;;;;;;;;;;;;5092581;28;19908;-73
2024/03/26 00:28:14;;;;;;;;;;;;;;;;;;5094051;28;19908;-73
2024/03/26 00:30:40;;;;;;;;;;;;;;;;;;5092437;28;19953;-73
2024/03/26 00:33:06;;;;;;;;;;;;;;;;;;5093627;28;19954;-73
2024/03/26 00:35:32;;;;;;;;;;;;;;;;;;5092636;28;19908;-74
2024/03/26 00:37:58;;;;;;;;;;;;;;;;;;5094092;28;19908;-73
2024/03/26 00:40:24;;;;;;;;;;;;;;;;;;5093895;28;19912;-73
2024/03/26 00:42:50;;;;;;;;;;;;;;;;;;5093773;28;20348;-73
2024/03/26 00:45:16;;;;;;;;;;;;;;;;;;5093375;28;20364;-73
2024/03/26 00:47:42;;;;;;;;;;;;;;;;;;5093819;28;20318;-73
2024/03/26 00:50:07;;;;;;;;;;;;;;;;;;5094034;28;19916;-73
2024/03/26 00:52:33;;;;;;;;;;;;;;;;;;5095874;28;19912;-73
2024/03/26 00:54:59;;;;;;;;;;;;;;;;;;5096463;28;20003;-73
2024/03/26 00:57:25;;;;;;;;;;;;;;;;;;5097772;28;19909;-74
2024/03/26 00:59:51;;;;;;;;;;;;;;;;;;5097788;28;20273;-73
2024/03/26 01:02:17;;;;;;;;;;;;;;;;;;5096335;28;20384;-73
2024/03/26 01:04:43;;;;;;;;;;;;;;;;;;5098218;28;20268;-74
2024/03/26 01:07:09;;;;;;;;;;;;;;;;;;5097273;28;20261;-73
2024/03/26 01:09:35;;;;;;;;;;;;;;;;;;5097421;28;20315;-73
2024/03/26 01:12:01;;;;;;;;;;;;;;;;;;5096197;28;20284;-73
2024/03/26 01:14:27;;;;;;;;;;;;;;;;;;5096981;28;19909;-73
2024/03/26 01:16:53;;;;;;;;;;;;;;;;;;5097433;28;19981;-73
2024/03/26 01:19:19;;;;;;;;;;;;;;;;;;5097394;28;20325;-73
2024/03/26 01:21:45;;;;;;;;;;;;;;;;;;5096971;28;20346;-73
2024/03/26 01:24:11;;;;;;;;;;;;;;;;;;5095979;28;19908;-73
2024/03/26 01:26:36;;;;;;;;;;;;;;;;;;5097231;28;20395;-73
2024/03/26 01:29:02;;;;;;;;;;;;;;;;;;5096642;28;20602;-73
2024/03/26 01:31:28;;;;;;;;;;;;;;;;;;5097076;28;20283;-73
2024/03/26 01:33:54;;;;;;;;;;;;;;;;;;5097137;28;19908;-73
2024/03/26 01:36:20;;;;;;;;;;;;;;;;;;5096642;28;20049;-73
2024/03/26 01:38:46;;;;;;;;;;;;;;;;;;5096933;28;19970;-74
2024/03/26 01:41:12;;;;;;;;;;;;;;;;;;5096968;28;19908;-73
2024/03/26 01:43:38;;;;;;;;;;;;;;;;;;5096573;28;19915;-73
2024/03/26 01:46:04;;;;;;;;;;;;;;;;;;5096803;28;19908;-73
2024/03/26 01:48:30;;;;;;;;;;;;;;;;;;5096434;28;19908;-73
2024/03/26 01:50:56;;;;;;;;;;;;;;;;;;5096678;28;19916;-73
2024/03/26 01:53:22;;;;;;;;;;;;;;;;;;5097032;28;19970;-73
2024/03/26 01:55:48;;;;;;;;;;;;;;;;;;5095009;28;19908;-73
2024/03/26 01:58:14;;;;;;;;;;;;;;;;;;5096681;28;20010;-74
2024/03/26 02:00:39;;;;;;;;;;;;;;;;;;5096554;28;19918;-73
2024/03/26 02:03:05;;;;;;;;;;;;;;;;;;5095681;28;19908;-73
2024/03/26 02:05:31;;;;;;;;;;;;;;;;;;5096516;28;19908;-73
2024/03/26 02:07:57;;;;;;;;;;;;;;;;;;5096463;28;19976;-74
2024/03/26 02:10:23;;;;;;;;;;;;;;;;;;5095981;28;19920;-73
2024/03/26 02:12:49;;;;;;;;;;;;;;;;;;5094987;28;19908;-73
2024/03/26 02:15:15;;;;;;;;;;;;;;;;;;5096196;28;20042;-73
2024/03/26 02:17:41;;;;;;;;;;;;;;;;;;5096096;28;20272;-73
2024/03/26 02:20:07;;;;;;;;;;;;;;;;;;5096208;28;19908;-73
2024/03/26 02:22:33;;;;;;;;;;;;;;;;;;5096148;28;20360;-73
2024/03/26 02:24:59;;;;;;;;;;;;;;;;;;5095725;28;19908;-74
2024/03/26 02:27:25;;;;;;;;;;;;;;;;;;5094817;28;19914;-74
2024/03/26 02:29:51;;;;;;;;;;;;;;;;;;5095738;28;19960;-73
2024/03/26 02:32:17;;;;;;;;;;;;;;;;;;5095686;28;19916;-74
2024/03/26 02:34:43;;;;;;;;;;;;;;;;;;5095929;28;19912;-73
2024/03/26 02:37:09;;;;;;;;;;;;;;;;;;5095821;28;19960;-74
2024/03/26 02:39:35;;;;;;;;;;;;;;;;;;5095572;28;19908;-74
2024/03/26 02:42:01;;;;;;;;;;;;;;;;;;5095834;28;19912;-73
2024/03/26 02:44:27;;;;;;;;;;;;;;;;;;5094514;28;19962;-74
2024/03/26 02:46:53;;;;;;;;;;;;;;;;;;5095330;28;19920;-73
2024/03/26 02:49:18;;;;;;;;;;;;;;;;;;5095566;28;19916;-73
2024/03/26 02:51:44;;;;;;;;;;;;;;;;;;5093896;28;20002;-73
2024/03/26 02:54:10;;;;;;;;;;;;;;;;;;5095813;28;19908;-73
2024/03/26 02:56:36;;;;;;;;;;;;;;;;;;5095463;28;19908;-73
2024/03/26 02:59:02;;;;;;;;;;;;;;;;;;5095182;28;19915;-74
2024/03/26 03:01:28;;;;;;;;;;;;;;;;;;5095376;28;19908;-73
2024/03/26 03:03:54;;;;;;;;;;;;;;;;;;5095346;28;19915;-73
2024/03/26 03:06:20;;;;;;;;;;;;;;;;;;5095151;28;19953;-73
2024/03/26 03:08:47;;;;;;;;;;;;;;;;;;5095166;28;19915;-73
2024/03/26 03:11:13;;;;;;;;;;;;;;;;;;5095177;28;19919;-73
2024/03/26 03:13:39;;;;;;;;;;;;;;;;;;5093990;28;20295;-74
2024/03/26 03:16:05;;;;;;;;;;;;;;;;;;5095074;28;19908;-73
2024/03/26 03:18:31;;;;;;;;;;;;;;;;;;5093800;28;20025;-73
2024/03/26 03:20:57;;;;;;;;;;;;;;;;;;5094671;28;19908;-74
2024/03/26 03:23:23;;;;;;;;;;;;;;;;;;5095069;28;19912;-74
2024/03/26 03:25:49;;;;;;;;;;;;;;;;;;5094882;28;19908;-74
2024/03/26 03:28:15;;;;;;;;;;;;;;;;;;5094626;28;19908;-73
2024/03/26 03:30:41;;;;;;;;;;;;;;;;;;5093247;28;20061;-73
2024/03/26 03:33:07;;;;;;;;;;;;;;;;;;5093445;28;19908;-73
2024/03/26 03:35:33;;;;;;;;;;;;;;;;;;5094493;28;19912;-73
2024/03/26 03:37:58;;;;;;;;;;;;;;;;;;5094704;28;19916;-73
2024/03/26 03:40:24;;;;;;;;;;;;;;;;;;5094797;28;19908;-72
2024/03/26 03:42:50;;;;;;;;;;;;;;;;;;5094319;28;19912;-72
2024/03/26 03:45:16;;;;;;;;;;;;;;;;;;5094598;28;19908;-73
2024/03/26 03:47:42;;;;;;;;;;;;;;;;;;5094489;28;20326;-72
2024/03/26 03:50:08;;;;;;;;;;;;;;;;;;5094101;28;20342;-73
2024/03/26 03:52:34;;;;;;;;;;;;;;;;;;5092803;28;19993;-73
2024/03/26 03:55:00;;;;;;;;;;;;;;;;;;5093991;28;20446;-73
2024/03/26 03:57:26;;;;;;;;;;;;;;;;;;5094291;28;20276;-73
2024/03/26 03:59:52;;;;;;;;;;;;;;;;;;5094338;28;20249;-73
2024/03/26 04:02:18;;;;;;;;;;;;;;;;;;5093909;28;20368;-73
2024/03/26 04:04:44;;;;;;;;;;;;;;;;;;5094237;28;19908;-72
2024/03/26 04:07:10;;;;;;;;;;;;;;;;;;5094180;28;19999;-73
2024/03/26 04:09:36;;;;;;;;;;;;;;;;;;5093904;28;19912;-72
2024/03/26 04:12:02;;;;;;;;;;;;;;;;;;5092796;28;19919;-73
2024/03/26 04:14:27;;;;;;;;;;;;;;;;;;5094103;28;20136;-73
2024/03/26 04:16:53;;;;;;;;;;;;;;;;;;5092301;28;19912;-73
2024/03/26 04:19:19;;;;;;;;;;;;;;;;;;5094227;28;20038;-72
2024/03/26 04:21:45;;;;;;;;;;;;;;;;;;5092696;28;19915;-72
2024/03/26 04:24:11;;;;;;;;;;;;;;;;;;5093577;28;20049;-73
2024/03/26 04:26:37;;;;;;;;;;;;;;;;;;5094094;28;20353;-73
2024/03/26 04:29:03;;;;;;;;;;;;;;;;;;5093679;28;20407;-72
2024/03/26 04:31:29;;;;;;;;;;;;;;;;;;5093579;28;19995;-73
2024/03/26 04:33:55;;;;;;;;;;;;;;;;;;5093886;28;19954;-72
2024/03/26 04:36:21;;;;;;;;;;;;;;;;;;5094454;28;19952;-73
2024/03/26 04:38:47;;;;;;;;;;;;;;;;;;5092233;28;20273;-72
2024/03/26 04:41:13;;;;;;;;;;;;;;;;;;5093841;28;20329;-72
2024/03/26 04:43:39;;;;;;;;;;;;;;;;;;5093793;28;19908;-73
2024/03/26 04:46:05;;;;;;;;;;;;;;;;;;5092131;28;19940;-72
2024/03/26 04:48:31;;;;;;;;;;;;;;;;;;5093814;28;19915;-73
2024/03/26 04:50:57;;;;;;;;;;;;;;;;;;5093666;28;19916;-73
2024/03/26 04:53:22;;;;;;;;;;;;;;;;;;5093465;28;20380;-73
2024/03/26 04:55:49;;;;;;;;;;;;;;;;;;5093665;28;20353;-73
2024/03/26 04:58:15;;;;;;;;;;;;;;;;;;5093255;28;20002;-72
2024/03/26 05:00:41;;;;;;;;;;;;;;;;;;5092369;28;19958;-72
2024/03/26 05:03:07;;;;;;;;;;;;;;;;;;5093741;28;19908;-72
2024/03/26 05:05:33;;;;;;;;;;;;;;;;;;5093258;28;19921;-72
2024/03/26 05:07:59;;;;;;;;;;;;;;;;;;5092246;28;19915;-72
2024/03/26 05:10:25;;;;;;;;;;;;;;;;;;5093609;28;19942;-73
2024/03/26 05:12:51;;;;;;;;;;;;;;;;;;5093220;28;20367;-73
2024/03/26 05:15:17;;;;;;;;;;;;;;;;;;5093445;28;20284;-72
2024/03/26 05:17:43;;;;;;;;;;;;;;;;;;5093518;28;20269;-72
2024/03/26 05:20:09;;;;;;;;;;;;;;;;;;5093120;28;20393;-73
2024/03/26 05:22:35;;;;;;;;;;;;;;;;;;5093399;28;20279;-73
2024/03/26 05:25:01;;;;;;;;;;;;;;;;;;5086922;28;20258;-73
2024/03/26 05:27:27;;;;;;;;;;;;;;;;;;5091921;28;20368;-72
2024/03/26 05:29:53;;;;;;;;;;;;;;;;;;5091122;28;19931;-73
2024/03/26 05:32:19;;;;;;;;;;;;;;;;;;5090675;28;20250;-72
2024/03/26 05:34:45;;;;;;;;;;;;;;;;;;5092168;28;19986;-73
2024/03/26 05:37:11;;;;;;;;;;;;;;;;;;5091649;28;20387;-72
2024/03/26 05:39:37;;;;;;;;;;;;;;;;;;5096960;28;19908;-72
2024/03/26 05:42:03;;;;;;;;;;;;;;;;;;5095437;28;20474;-73
2024/03/26 05:44:29;;;;;;;;;;;;;;;;;;5097599;28;20372;-72
2024/03/26 05:46:55;;;;;;;;;;;;;;;;;;5095629;28;19908;-73
2024/03/26 05:49:21;;;;;;;;;;;;;;;;;;5095725;28;20327;-72
2024/03/26 05:51:47;;;;;;;;;;;;;;;;;;5096309;28;20333;-72
2024/03/26 05:54:13;;;;;;;;;;;;;;;;;;5096389;28;20277;-73
2024/03/26 05:56:38;;;;;;;;;;;;;;;;;;5096294;28;20384;-73
2024/03/26 05:59:04;;;;;;;;;;;;;;;;;;5096711;28;20025;-72
2024/03/26 06:01:30;;;;;;;;;;;;;;;;;;5096241;28;19908;-73
2024/03/26 06:03:56;;;;;;;;;;;;;;;;;;5096455;28;19908;-72
2024/03/26 06:06:22;;;;;;;;;;;;;;;;;;5096332;28;19943;-72
2024/03/26 06:08:48;;;;;;;;;;;;;;;;;;5096158;28;19912;-73
2024/03/26 06:11:14;;;;;;;;;;;;;;;;;;5096256;28;19917;-73
2024/03/26 06:13:40;;;;;;;;;;;;;;;;;;5095329;28;19937;-73
2024/03/26 06:16:07;;;;;;;;;;;;;;;;;;5095692;28;20066;-73
2024/03/26 06:18:33;;;;;;;;;;;;;;;;;;5094970;28;19959;-73
2024/03/26 06:20:58;;;;;;;;;;;;;;;;;;5096236;28;19958;-74
2024/03/26 06:23:24;;;;;;;;;;;;;;;;;;5095725;28;19908;-73
2024/03/26 06:25:50;;;;;;;;;;;;;;;;;;5095915;28;19953;-73
2024/03/26 06:28:16;;;;;;;;;;;;;;;;;;5095861;28;19952;-72
2024/03/26 06:30:42;;;;;;;;;;;;;;;;;;5095528;28;19927;-75
2024/03/26 06:33:11;;;;;;;;;;;;;;;;;;5095890;28;19908;-73
2024/03/26 06:35:37;;;;;;;;;;;;;;;;;;5095333;28;19914;-71
2024/03/26 06:38:05;;;;;;;;;;;;;;;;;;5095113;28;20311;-71
2024/03/26 06:40:31;;;;;;;;;;;;;;;;;;5112655;28;19908;-70
2024/03/26 06:42:57;;;;;;;;;;;;;;;;;;5097651;28;20058;-69
2024/03/26 06:45:22;;;;;;;;;;;;;;;;;;5100148;28;19967;-70
2024/03/26 06:47:48;;;;;;;;;;;;;;;;;;5101511;28;19912;-68
2024/03/26 06:50:14;;;;;;;;;;;;;;;;;;5109014;28;19926;-71
2024/03/26 06:52:40;;;;;;;;;;;;;;;;;;5089739;28;19912;-69
2024/03/26 06:55:06;;;;;;;;;;;;;;;;;;5104716;28;19912;-71
2024/03/26 06:57:32;;;;;;;;;;;;;;;;;;5082651;28;19909;-71
2024/03/26 06:59:58;;;;;;;;;;;;;;;;;;5102011;28;19912;-71
2024/03/26 07:02:24;;;;;;;;;;;;;;;;;;5101665;28;19920;-70
2024/03/26 07:04:50;;;;;;;;;;;;;;;;;;5094767;28;20403;-68
2024/03/26 07:07:16;;;;;;;;;;;;;;;;;;5095023;28;20284;-69
2024/03/26 07:09:43;;;;;;;;;;;;;;;;;;5094322;28;19981;-70
2024/03/26 07:12:08;;;;;;;;;;;;;;;;;;5090151;28;19916;-72
2024/03/26 07:14:34;;;;;;;;;;;;;;;;;;5112985;28;20006;-70
2024/03/26 07:17:00;;;;;;;;;;;;;;;;;;5113674;28;19911;-71
2024/03/26 07:19:26;;;;;;;;;;;;;;;;;;5100121;28;19928;-70
2024/03/26 07:21:52;;;;;;;;;;;;;;;;;;5083075;28;19995;-71
2024/03/26 07:24:18;;;;;;;;;;;;;;;;;;5088647;28;20288;-69
2024/03/26 07:26:44;;;;;;;;;;;;;;;;;;5108069;28;19916;-68
2024/03/26 07:29:10;;;;;;;;;;;;;;;;;;5092793;28;20018;-69
2024/03/26 07:31:36;;;;;;;;;;;;;;;;;;5093605;28;19917;-70
2024/03/26 07:34:02;;;;;;;;;;;;;;;;;;5092322;28;19916;-70
2024/03/26 07:36:28;;;;;;;;;;;;;;;;;;5112920;28;20350;-72
2024/03/26 07:38:54;;;;;;;;;;;;;;;;;;5097782;28;19912;-71
2024/03/26 07:41:21;;;;;;;;;;;;;;;;;;5112556;28;19995;-74
2024/03/26 07:43:47;;;;;;;;;;;;;;;;;;5101423;28;19908;-73
2024/03/26 07:46:13;;;;;;;;;;;;;;;;;;5113108;28;19926;-72
2024/03/26 07:48:39;;;;;;;;;;;;;;;;;;5103460;28;19908;-72
2024/03/26 07:51:05;;;;;;;;;;;;;;;;;;5093977;28;19916;-72
2024/03/26 07:53:32;;;;;;;;;;;;;;;;;;5093587;28;19918;-73
2024/03/26 07:55:58;;;;;;;;;;;;;;;;;;5091966;28;19908;-73
2024/03/26 07:58:24;;;;;;;;;;;;;;;;;;5106073;28;19912;-74
2024/03/26 08:00:50;;;;;;;;;;;;;;;;;;5100603;28;19912;-70
2024/03/26 08:03:16;;;;;;;;;;;;;;;;;;5093340;28;19919;-68
2024/03/26 08:05:42;;;;;;;;;;;;;;;;;;5108561;28;20385;-68
2024/03/26 08:08:09;;;;;;;;;;;;;;;;;;5100283;28;20292;-68
2024/03/26 08:10:35;;;;;;;;;;;;;;;;;;5101265;28;19920;-67
2024/03/26 08:13:00;;;;;;;;;;;;;;;;;;5104902;28;19923;-68
2024/03/26 08:15:26;;;;;;;;;;;;;;;;;;5088513;28;19909;-68
2024/03/26 08:17:52;;;;;;;;;;;;;;;;;;5093351;28;19914;-68
2024/03/26 08:20:18;;;;;;;;;;;;;;;;;;5092223;28;19915;-69
2024/03/26 08:22:44;;;;;;;;;;;;;;;;;;5103560;28;20011;-68
2024/03/26 08:25:10;;;;;;;;;;;;;;;;;;5093239;28;19908;-68
2024/03/26 08:27:36;;;;;;;;;;;;;;;;;;5093424;28;19915;-67
2024/03/26 08:30:02;;;;;;;;;;;;;;;;;;5091325;28;20011;-68
2024/03/26 08:32:28;;;;;;;;;;;;;;;;;;5093964;28;19919;-69
2024/03/26 08:34:59;;;;;;;;;;;;;;;;;;5091059;28;19916;-67
2024/03/26 08:37:25;;;;;;;;;;;;;;;;;;5091528;28;20435;-70
2024/03/26 08:39:51;;;;;;;;;;;;;;;;;;5103432;28;19920;-69
2024/03/26 08:42:17;;;;;;;;;;;;;;;;;;5106519;28;19915;-68
2024/03/26 08:44:43;;;;;;;;;;;;;;;;;;5101905;28;20437;-68
2024/03/26 08:47:09;;;;;;;;;;;;;;;;;;5085713;28;20287;-69
2024/03/26 08:49:35;;;;;;;;;;;;;;;;;;5096150;28;20265;-68
2024/03/26 08:52:00;;;;;;;;;;;;;;;;;;5099869;28;19912;-68
2024/03/26 08:54:26;;;;;;;;;;;;;;;;;;5103684;28;20001;-69
2024/03/26 08:56:52;;;;;;;;;;;;;;;;;;5097693;28;19919;-69
2024/03/26 08:59:18;;;;;;;;;;;;;;;;;;5085423;28;19913;-69
2024/03/26 09:01:44;;;;;;;;;;;;;;;;;;5094289;28;19922;-67
2024/03/26 09:04:10;;;;;;;;;;;;;;;;;;5089668;28;19912;-69
2024/03/26 09:06:36;;;;;;;;;;;;;;;;;;5099729;28;19912;-69
2024/03/26 09:09:03;;;;;;;;;;;;;;;;;;5096198;28;19934;-67
2024/03/26 09:11:29;;;;;;;;;;;;;;;;;;5112756;28;19961;-67
2024/03/26 09:13:55;;;;;;;;;;;;;;;;;;5096148;28;19920;-69
2024/03/26 09:16:21;;;;;;;;;;;;;;;;;;5098650;28;19971;-71
2024/03/26 09:18:48;;;;;;;;;;;;;;;;;;5116079;28;20375;-70
2024/03/26 09:21:15;;;;;;;;;;;;;;;;;;5101374;28;19912;-69
2024/03/26 09:23:41;;;;;;;;;;;;;;;;;;5095341;28;19908;-68
2024/03/26 09:26:08;;;;;;;;;;;;;;;;;;5099093;28;19935;-70
2024/03/26 09:28:34;;;;;;;;;;;;;;;;;;5110149;28;20729;-69
2024/03/26 09:31:01;;;;;;;;;;;;;;;;;;5095848;28;19916;-69
2024/03/26 09:33:26;;;;;;;;;;;;;;;;;;5077537;28;19912;-69
2024/03/26 09:35:52;;;;;;;;;;;;;;;;;;5085721;28;19964;-69
2024/03/26 09:38:20;;;;;;;;;;;;;;;;;;5075968;28;20003;-69
2024/03/26 09:40:46;;;;;;;;;;;;;;;;;;5056909;28;19916;-73
2024/03/26 09:43:11;;;;;;;;;;;;;;;;;;5073812;28;19923;-70
2024/03/26 09:45:37;;;;;;;;;;;;;;;;;;5065797;28;19916;-70
2024/03/26 09:48:04;;;;;;;;;;;;;;;;;;5043251;28;19928;-69
2024/03/26 09:50:30;;;;;;;;;;;;;;;;;;5070953;28;20106;-67
2024/03/26 09:52:56;;;;;;;;;;;;;;;;;;5074681;28;19999;-70
2024/03/26 09:55:21;;;;;;;;;;;;;;;;;;5070380;28;19920;-68
2024/03/26 09:57:47;;;;;;;;;;;;;;;;;;5051949;28;19917;-71
2024/03/26 10:00:13;;;;;;;;;;;;;;;;;;5065723;28;19938;-69
2024/03/26 10:02:39;;;;;;;;;;;;;;;;;;5071673;28;20407;-73
2024/03/26 10:05:05;;;;;;;;;;;;;;;;;;5073532;28;20258;-75
2024/03/26 10:07:31;;;;;;;;;;;;;;;;;;5056396;28;19908;-75
2024/03/26 10:09:57;;;;;;;;;;;;;;;;;;5074090;28;19913;-77
2024/03/26 10:12:23;;;;;;;;;;;;;;;;;;5074353;28;19965;-76
2024/03/26 10:14:49;;;;;;;;;;;;;;;;;;5071433;28;19916;-75
2024/03/26 10:17:15;;;;;;;;;;;;;;;;;;5046279;28;19909;-74
2024/03/26 10:19:41;;;;;;;;;;;;;;;;;;5055172;28;19915;-75
2024/03/26 10:22:07;;;;;;;;;;;;;;;;;;5054692;28;19913;-75
2024/03/26 10:24:33;;;;;;;;;;;;;;;;;;5054868;28;19912;-77
2024/03/26 10:26:59;;;;;;;;;;;;;;;;;;5069183;28;19912;-76
2024/03/26 10:29:25;;;;;;;;;;;;;;;;;;5068983;28;19920;-75
2024/03/26 10:31:51;;;;;;;;;;;;;;;;;;5092087;28;19919;-75
2024/03/26 10:34:17;;;;;;;;;;;;;;;;;;5089049;28;19924;-74
2024/03/26 10:36:43;;;;;;;;;;;;;;;;;;5093285;28;19916;-74
2024/03/26 10:39:10;;;;;;;;;;;;;;;;;;5093294;28;19919;-70
2024/03/26 10:41:36;;;;;;;;;;;;;;;;;;5093341;28;19916;-72
2024/03/26 10:44:02;;;;;;;;;;;;;;;;;;5103142;28;19919;-72
2024/03/26 10:46:28;;;;;;;;;;;;;;;;;;5103322;28;19908;-73
2024/03/26 10:48:59;;;;;;;;;;;;;;;;;;5095692;28;19958;-70
2024/03/26 10:51:25;;;;;;;;;;;;;;;;;;5087567;28;19916;-71
2024/03/26 10:54:03;;;;;;;;;;;;;;;;;;5093827;28;19908;-71
2024/03/26 10:56:31;;;;;;;;;;;;;;;;;;5092881;28;20010;-72
2024/03/26 10:58:57;;;;;;;;;;;;;;;;;;5095945;28;20031;-70
2024/03/26 11:01:23;;;;;;;;;;;;;;;;;;5094331;28;19916;-71
2024/03/26 11:03:49;;;;;;;;;;;;;;;;;;5093467;28;19908;-70
2024/03/26 11:06:15;;;;;;;;;;;;;;;;;;5093112;28;19912;-71
2024/03/26 11:08:41;;;;;;;;;;;;;;;;;;5093269;28;19924;-70
2024/03/26 11:11:07;;;;;;;;;;;;;;;;;;5104696;28;19919;-70
2024/03/26 11:13:33;;;;;;;;;;;;;;;;;;5086549;28;19916;-69
2024/03/26 11:16:00;;;;;;;;;;;;;;;;;;5085906;28;20371;-68
2024/03/26 11:18:26;;;;;;;;;;;;;;;;;;5089066;28;20371;-68
2024/03/26 11:20:52;;;;;;;;;;;;;;;;;;5095314;28;20397;-68
2024/03/26 11:23:18;;;;;;;;;;;;;;;;;;5099248;28;20014;-69
2024/03/26 11:25:44;;;;;;;;;;;;;;;;;;5095471;28;19916;-69
2024/03/26 11:28:10;;;;;;;;;;;;;;;;;;5092846;28;20276;-71
2024/03/26 11:30:37;;;;;;;;;;;;;;;;;;5093010;28;19985;-72
2024/03/26 11:33:04;;;;;;;;;;;;;;;;;;5105840;28;20010;-73
2024/03/26 11:35:30;;;;;;;;;;;;;;;;;;5103500;28;20007;-68
2024/03/26 11:37:56;;;;;;;;;;;;;;;;;;5093371;28;20066;-70
2024/03/26 11:40:22;;;;;;;;;;;;;;;;;;5103851;28;19998;-70
2024/03/26 11:42:48;;;;;;;;;;;;;;;;;;5092149;28;20403;-70
2024/03/26 11:45:14;;;;;;;;;;;;;;;;;;5093152;28;20330;-69
2024/03/26 11:47:40;;;;;;;;;;;;;;;;;;5096418;28;20296;-71
2024/03/26 11:50:07;;;;;;;;;;;;;;;;;;5098376;28;19920;-69
2024/03/26 11:52:33;;;;;;;;;;;;;;;;;;5092899;28;20438;-70
2024/03/26 11:55:00;;;;;;;;;;;;;;;;;;5098401;28;19917;-71
2024/03/26 11:57:28;;;;;;;;;;;;;;;;;;5081243;28;19942;-69
2024/03/26 11:59:54;;;;;;;;;;;;;;;;;;5107700;28;19947;-71
2024/03/26 12:02:20;;;;;;;;;;;;;;;;;;5106157;28;19923;-73
2024/03/26 12:04:46;;;;;;;;;;;;;;;;;;5092568;28;19912;-73
2024/03/26 12:07:12;;;;;;;;;;;;;;;;;;5090049;28;20022;-73
2024/03/26 12:09:37;;;;;;;;;;;;;;;;;;5103687;28;19916;-71
2024/03/26 12:12:03;;;;;;;;;;;;;;;;;;5109799;28;19926;-73
2024/03/26 12:14:29;;;;;;;;;;;;;;;;;;5111957;28;19954;-71
2024/03/26 12:16:55;;;;;;;;;;;;;;;;;;5107856;28;19920;-75
2024/03/26 12:19:21;;;;;;;;;;;;;;;;;;5106474;28;19912;-71
2024/03/26 12:21:48;;;;;;;;;;;;;;;;;;5088252;28;19916;-72
2024/03/26 12:24:14;;;;;;;;;;;;;;;;;;5090038;28;20386;-75
2024/03/26 12:26:40;;;;;;;;;;;;;;;;;;5092659;28;19916;-72
2024/03/26 12:29:05;;;;;;;;;;;;;;;;;;5092762;28;19961;-73
2024/03/26 12:31:31;;;;;;;;;;;;;;;;;;5102039;28;19920;-73
2024/03/26 12:33:57;;;;;;;;;;;;;;;;;;5093284;28;19919;-69
2024/03/26 12:36:23;;;;;;;;;;;;;;;;;;5089984;28;20367;-72
2024/03/26 12:38:49;;;;;;;;;;;;;;;;;;5111206;28;20386;-71
2024/03/26 12:41:15;;;;;;;;;;;;;;;;;;5109356;28;20276;-71
2024/03/26 12:43:41;;;;;;;;;;;;;;;;;;5099304;28;19961;-73
2024/03/26 12:46:07;;;;;;;;;;;;;;;;;;5096548;28;19923;-68
2024/03/26 12:48:33;;;;;;;;;;;;;;;;;;5102189;28;19912;-70
2024/03/26 12:50:59;;;;;;;;;;;;;;;;;;5095075;28;20011;-70
2024/03/26 12:53:26;;;;;;;;;;;;;;;;;;5102352;28;19978;-70
2024/03/26 12:55:52;;;;;;;;;;;;;;;;;;5115501;28;19938;-70
2024/03/26 12:58:18;;;;;;;;;;;;;;;;;;5113133;28;19915;-70
2024/03/26 13:00:44;;;;;;;;;;;;;;;;;;5116163;28;20324;-69
2024/03/26 13:03:12;;;;;;;;;;;;;;;;;;5115455;28;19951;-70
2024/03/26 13:05:39;;;;;;;;;;;;;;;;;;5115463;28;19958;-71
2024/03/26 13:08:08;;;;;;;;;;;;;;;;;;5094207;28;20434;-70
2024/03/26 13:10:45;;;;;;;;;;;;;;;;;;5095737;28;19969;-71
2024/03/26 13:13:12;;;;;;;;;;;;;;;;;;5096358;28;20306;-71
2024/03/26 13:15:38;;;;;;;;;;;;;;;;;;5096581;28;20303;-71
2024/03/26 13:18:04;;;;;;;;;;;;;;;;;;5094956;28;20390;-72
2024/03/26 13:20:30;;;;;;;;;;;;;;;;;;5094606;28;20005;-72
2024/03/26 13:22:56;;;;;;;;;;;;;;;;;;5082261;28;20372;-71
2024/03/26 13:25:22;;;;;;;;;;;;;;;;;;5073446;28;20405;-72
2024/03/26 13:27:48;;;;;;;;;;;;;;;;;;5075456;28;19915;-72
2024/03/26 13:30:15;;;;;;;;;;;;;;;;;;5074024;28;19924;-71
2024/03/26 13:32:41;;;;;;;;;;;;;;;;;;5073882;28;19935;-70
2024/03/26 13:35:10;;;;;;;;;;;;;;;;;;5075209;28;19937;-70
2024/03/26 13:37:36;;;;;;;;;;;;;;;;;;5074082;28;19973;-71
2024/03/26 13:40:02;;;;;;;;;;;;;;;;;;5075268;28;19909;-70
2024/03/26 13:42:28;;;;;;;;;;;;;;;;;;5074658;28;19913;-71
2024/03/26 13:44:54;;;;;;;;;;;;;;;;;;5076206;28;19908;-73
2024/03/26 13:47:21;;;;;;;;;;;;;;;;;;5076221;28;19908;-77
2024/03/26 13:49:47;;;;;;;;;;;;;;;;;;5075128;28;19999;-76
2024/03/26 13:52:13;;;;;;;;;;;;;;;;;;5076125;28;20289;-76
2024/03/26 13:54:40;;;;;;;;;;;;;;;;;;5075115;28;19927;-76
2024/03/26 13:57:06;;;;;;;;;;;;;;;;;;5074778;28;19940;-77
2024/03/26 13:59:32;;;;;;;;;;;;;;;;;;5104978;28;19957;-76
2024/03/26 14:01:58;;;;;;;;;;;;;;;;;;5115132;28;19915;-76
2024/03/26 14:04:25;;;;;;;;;;;;;;;;;;5116024;28;19959;-76
2024/03/26 14:06:51;;;;;;;;;;;;;;;;;;5113133;28;19907;-75
2024/03/26 14:09:18;;;;;;;;;;;;;;;;;;5115440;28;19943;-77
2024/03/26 14:11:44;;;;;;;;;;;;;;;;;;5116570;28;20252;-76
2024/03/26 14:14:11;;;;;;;;;;;;;;;;;;5116296;28;19908;-77
2024/03/26 14:16:37;;;;;;;;;;;;;;;;;;5116200;28;19931;-76
2024/03/26 14:19:03;;;;;;;;;;;;;;;;;;5114214;28;19937;-76
2024/03/26 14:21:29;;;;;;;;;;;;;;;;;;5111579;28;19952;-76
2024/03/26 14:23:56;;;;;;;;;;;;;;;;;;5111793;28;19930;-76
2024/03/26 14:26:22;;;;;;;;;;;;;;;;;;5114518;28;20355;-77
2024/03/26 14:28:48;;;;;;;;;;;;;;;;;;5113898;28;20031;-77
2024/03/26 14:31:17;;;;;;;;;;;;;;;;;;5114545;27;19941;-77
2024/03/26 14:33:43;;;;;;;;;;;;;;;;;;5114659;28;20534;-75
2024/03/26 14:36:12;;;;;;;;;;;;;;;;;;5115530;28;19915;-77
2024/03/26 14:38:38;;;;;;;;;;;;;;;;;;5114765;28;19995;-76
2024/03/26 14:41:05;;;;;;;;;;;;;;;;;;5114768;27;20249;-77
2024/03/26 14:43:31;;;;;;;;;;;;;;;;;;5113860;28;20390;-77
2024/03/26 14:45:57;;;;;;;;;;;;;;;;;;5113834;28;20033;-76
2024/03/26 14:48:23;;;;;;;;;;;;;;;;;;5113703;28;20015;-76
2024/03/26 14:50:52;;;;;;;;;;;;;;;;;;5114423;28;19916;-78
2024/03/26 14:53:18;;;;;;;;;;;;;;;;;;5116000;28;19908;-79
2024/03/26 14:55:44;;;;;;;;;;;;;;;;;;5115677;28;19907;-77
2024/03/26 14:58:10;;;;;;;;;;;;;;;;;;5114544;28;19945;-79
2024/03/26 15:00:37;;;;;;;;;;;;;;;;;;5115841;28;20335;-78
2024/03/26 15:03:03;;;;;;;;;;;;;;;;;;5116045;28;20003;-77
2024/03/26 15:05:29;;;;;;;;;;;;;;;;;;5115817;28;20003;-78
2024/03/26 15:07:55;;;;;;;;;;;;;;;;;;5115760;28;19919;-78
2024/03/26 15:10:22;;;;;;;;;;;;;;;;;;5114304;28;20272;-76
2024/03/26 15:12:48;;;;;;;;;;;;;;;;;;5115600;28;19999;-76
2024/03/26 15:15:14;;;;;;;;;;;;;;;;;;5115735;28;19915;-77
2024/03/26 15:17:40;;;;;;;;;;;;;;;;;;5115256;28;19915;-75
2024/03/26 15:20:07;;;;;;;;;;;;;;;;;;5115986;28;20294;-77
2024/03/26 15:22:34;;;;;;;;;;;;;;;;;;5115496;28;20388;-76
2024/03/26 15:25:00;;;;;;;;;;;;;;;;;;5096339;28;19912;-77
2024/03/26 15:32:37;;;;;;;;;;;;;;;;;;5094241;28;19953;-77
2024/03/26 15:35:03;;;;;;;;;;;;;;;;;;5076543;28;19916;-77
2024/03/26 15:37:29;;;;;;;;;;;;;;;;;;5094888;28;19908;-77
2024/03/26 15:39:56;;;;;;;;;;;;;;;;;;5093997;28;19971;-77
2024/03/26 15:42:22;;;;;;;;;;;;;;;;;;5094567;28;19915;-76
2024/03/26 15:44:48;;;;;;;;;;;;;;;;;;5076247;28;20378;-77
2024/03/26 15:47:14;;;;;;;;;;;;;;;;;;5094028;28;20001;-77
2024/03/26 15:49:41;;;;;;;;;;;;;;;;;;5094819;28;20030;-77
2024/03/26 15:52:07;;;;;;;;;;;;;;;;;;5094859;28;19909;-77
2024/03/26 15:54:33;;;;;;;;;;;;;;;;;;5094269;28;19919;-77
2024/03/26 15:56:59;;;;;;;;;;;;;;;;;;5076278;28;19908;-77
2024/03/26 15:59:26;;;;;;;;;;;;;;;;;;5075875;28;19908;-77
2024/03/26 16:01:52;;;;;;;;;;;;;;;;;;5094514;28;19915;-78
2024/03/26 16:04:18;;;;;;;;;;;;;;;;;;5093854;28;19940;-78
2024/03/26 16:06:45;;;;;;;;;;;;;;;;;;5093160;28;19961;-78
2024/03/26 16:09:11;;;;;;;;;;;;;;;;;;5094009;28;19908;-77
2024/03/26 16:11:37;;;;;;;;;;;;;;;;;;5094035;28;19916;-78
2024/03/26 16:14:03;;;;;;;;;;;;;;;;;;5093698;28;19912;-78
2024/03/26 16:16:29;;;;;;;;;;;;;;;;;;5075741;28;19908;-77
2024/03/26 16:18:56;;;;;;;;;;;;;;;;;;5092305;28;19916;-77
2024/03/26 16:21:22;;;;;;;;;;;;;;;;;;5074368;28;20310;-76
2024/03/26 16:23:48;;;;;;;;;;;;;;;;;;5093972;28;19939;-77
2024/03/26 16:26:15;;;;;;;;;;;;;;;;;;5076090;28;19908;-76
2024/03/26 16:28:42;;;;;;;;;;;;;;;;;;5093249;28;19916;-77
2024/03/26 16:31:16;;;;;;;;;;;;;;;;;;5093542;28;21378;-77
2024/03/26 16:33:42;;;;;;;;;;;;;;;;;;5094012;28;20311;-77
2024/03/26 16:36:10;;;;;;;;;;;;;;;;;;5093535;28;19908;-77
2024/03/26 16:38:37;;;;;;;;;;;;;;;;;;5075808;28;19934;-77
2024/03/26 16:41:03;;;;;;;;;;;;;;;;;;5093889;28;20280;-77
2024/03/26 16:43:30;;;;;;;;;;;;;;;;;;5093599;28;19974;-78